Time;durP1;ratioP1;P1;durP2;ratioP2;P2;SDS_P1;SDS_P2;PMS_P1;PMS_P2;Temp;Humidity;BMP_temperature;BMP_pressure;BME280_temperature;BME280_humidity;BME280_pressure;Samples;Min_cycle;Max_cycle;Signal;HPM_P1;HPM_P2
2022/03/01 00:01:04;;;;;;;;;46.25;37.25;;;;;;;;4993061;28;47872;-72
2022/03/01 00:03:30;;;;;;;;;45.00;37.00;;;;;;;;4994462;28;45429;-74
2022/03/01 00:05:55;;;;;;;;;46.00;36.25;;;;;;;;4994551;28;45381;-72
2022/03/01 00:08:20;;;;;;;;;42.00;36.50;;;;;;;;4995017;28;45421;-72
2022/03/01 00:10:45;;;;;;;;;47.50;38.75;;;;;;;;4993957;28;46304;-74
2022/03/01 00:13:11;;;;;;;;;43.00;35.00;;;;;;;;4994180;28;45445;-73
2022/03/01 00:15:37;;;;;;;;;50.75;36.75;;;;;;;;4994694;28;45358;-73
2022/03/01 00:18:02;;;;;;;;;48.25;38.50;;;;;;;;4997516;28;45664;-73
2022/03/01 00:20:27;;;;;;;;;46.75;37.00;;;;;;;;4998118;28;45430;-73
2022/03/01 00:22:53;;;;;;;;;49.25;40.25;;;;;;;;4997368;28;45539;-73
2022/03/01 00:25:18;;;;;;;;;46.25;38.00;;;;;;;;5012994;28;45511;-73
2022/03/01 00:27:43;;;;;;;;;46.25;35.75;;;;;;;;4997483;28;45310;-73
2022/03/01 00:30:09;;;;;;;;;47.00;38.00;;;;;;;;4997498;28;46312;-74
2022/03/01 00:32:35;;;;;;;;;48.00;39.25;;;;;;;;4998190;28;45524;-73
2022/03/01 00:35:00;;;;;;;;;49.00;39.00;;;;;;;;4997131;28;45329;-72
2022/03/01 00:37:25;;;;;;;;;48.00;38.00;;;;;;;;4997357;28;45451;-74
2022/03/01 00:39:50;;;;;;;;;34.25;32.25;;;;;;;;4997264;28;46094;-73
2022/03/01 00:42:16;;;;;;;;;45.00;37.50;;;;;;;;4997444;28;45408;-74
2022/03/01 00:44:41;;;;;;;;;48.75;39.50;;;;;;;;4998133;28;45409;-72
2022/03/01 00:47:06;;;;;;;;;53.50;41.50;;;;;;;;4997913;28;45518;-73
2022/03/01 00:49:32;;;;;;;;;49.75;38.00;;;;;;;;4996656;28;46294;-74
2022/03/01 00:51:57;;;;;;;;;47.00;38.00;;;;;;;;4997302;28;45330;-73
2022/03/01 00:54:22;;;;;;;;;46.75;39.00;;;;;;;;4997578;28;45572;-74
2022/03/01 00:56:47;;;;;;;;;47.75;38.75;;;;;;;;4997823;28;45465;-74
2022/03/01 00:59:12;;;;;;;;;41.25;35.00;;;;;;;;4997841;28;46305;-73
2022/03/01 01:01:38;;;;;;;;;39.00;35.75;;;;;;;;4997327;28;45488;-73
2022/03/01 01:04:03;;;;;;;;;43.00;37.50;;;;;;;;4996728;28;45458;-74
2022/03/01 01:06:28;;;;;;;;;39.50;35.25;;;;;;;;4997471;28;45302;-74
2022/03/01 01:08:53;;;;;;;;;43.50;37.00;;;;;;;;4997306;28;45526;-73
2022/03/01 01:11:19;;;;;;;;;40.00;34.25;;;;;;;;4997426;28;45263;-74
2022/03/01 01:13:45;;;;;;;;;42.75;36.00;;;;;;;;4997262;28;45243;-74
2022/03/01 01:16:10;;;;;;;;;44.25;38.00;;;;;;;;4996925;28;45444;-74
2022/03/01 01:18:38;;;;;;;;;42.75;36.50;;;;;;;;4996556;28;47012;-73
2022/03/01 01:21:03;;;;;;;;;31.50;28.50;;;;;;;;4996839;28;45390;-74
2022/03/01 01:23:29;;;;;;;;;39.50;32.50;;;;;;;;4997533;28;45394;-74
2022/03/01 01:25:54;;;;;;;;;35.00;32.00;;;;;;;;4996861;28;45846;-74
2022/03/01 01:28:19;;;;;;;;;47.00;37.25;;;;;;;;4995959;28;45367;-74
2022/03/01 01:30:44;;;;;;;;;36.50;30.25;;;;;;;;4996610;28;45466;-73
2022/03/01 01:33:09;;;;;;;;;43.75;36.50;;;;;;;;4996490;28;45352;-73
2022/03/01 01:35:35;;;;;;;;;37.00;34.25;;;;;;;;4997399;28;45447;-72
2022/03/01 01:38:00;;;;;;;;;41.50;32.75;;;;;;;;4996634;28;46063;-72
2022/03/01 01:40:27;;;;;;;;;40.50;33.75;;;;;;;;4995451;28;45424;-73
2022/03/01 01:42:53;;;;;;;;;41.00;35.25;;;;;;;;4996939;28;45559;-73
2022/03/01 01:45:19;;;;;;;;;40.25;35.25;;;;;;;;4996657;28;45470;-74
2022/03/01 01:47:45;;;;;;;;;46.00;37.50;;;;;;;;4996203;28;46263;-73
2022/03/01 01:50:10;;;;;;;;;47.00;37.75;;;;;;;;4978645;28;45395;-73
2022/03/01 01:52:35;;;;;;;;;42.75;35.25;;;;;;;;4996474;28;45267;-73
2022/03/01 01:55:01;;;;;;;;;54.00;41.00;;;;;;;;4996372;28;45518;-73
2022/03/01 01:57:26;;;;;;;;;51.25;40.75;;;;;;;;4996226;28;46064;-73
2022/03/01 01:59:52;;;;;;;;;51.50;41.00;;;;;;;;4996709;28;45539;-73
2022/03/01 02:02:18;;;;;;;;;48.75;41.50;;;;;;;;4996657;28;45541;-74
2022/03/01 02:04:44;;;;;;;;;53.00;42.00;;;;;;;;4996304;28;45502;-73
2022/03/01 02:07:10;;;;;;;;;52.50;42.00;;;;;;;;4996175;28;46074;-73
2022/03/01 02:09:35;;;;;;;;;54.25;41.75;;;;;;;;4996216;28;45384;-73
2022/03/01 02:12:02;;;;;;;;;44.00;39.25;;;;;;;;4996563;28;45475;-73
2022/03/01 02:14:27;;;;;;;;;51.75;42.00;;;;;;;;4997002;28;45282;-73
2022/03/01 02:16:53;;;;;;;;;55.00;43.00;;;;;;;;4995696;28;46108;-73
2022/03/01 02:19:18;;;;;;;;;44.75;36.75;;;;;;;;4996065;28;45500;-73
2022/03/01 02:21:46;;;;;;;;;50.50;40.25;;;;;;;;4996054;28;45334;-74
2022/03/01 02:24:12;;;;;;;;;54.00;42.50;;;;;;;;4995999;28;45468;-73
2022/03/01 02:26:37;;;;;;;;;56.00;45.50;;;;;;;;4996311;28;46035;-73
2022/03/01 02:29:02;;;;;;;;;56.00;45.75;;;;;;;;4995840;28;45452;-73
2022/03/01 02:31:27;;;;;;;;;56.25;45.25;;;;;;;;4995458;28;45417;-73
2022/03/01 02:33:52;;;;;;;;;57.25;44.75;;;;;;;;4995831;28;45425;-73
2022/03/01 02:36:18;;;;;;;;;55.00;45.25;;;;;;;;4995775;28;46683;-74
2022/03/01 02:38:43;;;;;;;;;54.25;42.75;;;;;;;;4996148;28;45600;-73
2022/03/01 02:41:08;;;;;;;;;51.75;42.50;;;;;;;;4995034;28;45550;-74
2022/03/01 02:43:33;;;;;;;;;56.00;43.25;;;;;;;;4995856;28;45488;-74
2022/03/01 02:45:58;;;;;;;;;54.75;43.50;;;;;;;;4995441;28;45480;-74
2022/03/01 02:48:24;;;;;;;;;55.75;46.00;;;;;;;;4995795;28;45318;-74
2022/03/01 02:50:49;;;;;;;;;57.25;46.75;;;;;;;;4995893;28;45280;-73
2022/03/01 02:53:15;;;;;;;;;57.00;45.50;;;;;;;;4996128;28;45428;-73
2022/03/01 02:55:40;;;;;;;;;58.75;46.75;;;;;;;;4995347;28;46138;-73
2022/03/01 02:58:05;;;;;;;;;51.00;41.50;;;;;;;;4995492;28;45317;-73
2022/03/01 03:00:30;;;;;;;;;58.75;46.75;;;;;;;;4995464;28;45424;-74
2022/03/01 03:02:56;;;;;;;;;59.25;47.50;;;;;;;;4995551;28;45485;-74
2022/03/01 03:05:21;;;;;;;;;63.75;48.00;;;;;;;;4996062;28;46246;-73
2022/03/01 03:07:46;;;;;;;;;59.75;48.25;;;;;;;;4995547;28;45367;-73
2022/03/01 03:10:12;;;;;;;;;63.75;49.25;;;;;;;;4995371;28;45706;-73
2022/03/01 03:12:37;;;;;;;;;56.00;45.00;;;;;;;;4995243;28;45499;-72
2022/03/01 03:15:03;;;;;;;;;63.25;47.75;;;;;;;;4994545;28;46291;-72
2022/03/01 03:17:28;;;;;;;;;61.25;49.25;;;;;;;;4995430;28;45413;-72
2022/03/01 03:19:53;;;;;;;;;55.75;46.50;;;;;;;;4994880;28;45442;-73
2022/03/01 03:22:19;;;;;;;;;52.50;43.25;;;;;;;;4995312;28;45453;-74
2022/03/01 03:24:44;;;;;;;;;54.00;42.50;;;;;;;;4994899;28;46090;-74
2022/03/01 03:27:09;;;;;;;;;55.50;47.00;;;;;;;;4995258;28;45403;-73
2022/03/01 03:29:34;;;;;;;;;64.00;50.00;;;;;;;;4995441;28;45252;-74
2022/03/01 03:31:59;;;;;;;;;58.25;48.00;;;;;;;;4994951;28;45532;-73
2022/03/01 03:34:25;;;;;;;;;57.00;45.75;;;;;;;;4994698;28;47262;-73
2022/03/01 03:36:51;;;;;;;;;68.50;51.00;;;;;;;;4994826;28;45559;-74
2022/03/01 03:39:16;;;;;;;;;59.75;47.50;;;;;;;;4994911;28;45571;-73
2022/03/01 03:41:41;;;;;;;;;62.00;47.50;;;;;;;;4994897;28;45920;-74
2022/03/01 03:44:06;;;;;;;;;58.25;46.50;;;;;;;;4994555;28;47150;-74
2022/03/01 03:46:32;;;;;;;;;59.00;48.00;;;;;;;;4994750;28;45282;-74
2022/03/01 03:48:57;;;;;;;;;55.00;44.00;;;;;;;;4994900;28;45373;-74
2022/03/01 03:51:23;;;;;;;;;59.50;48.00;;;;;;;;4994313;28;45461;-74
2022/03/01 03:53:48;;;;;;;;;61.00;48.75;;;;;;;;4994711;28;46195;-73
2022/03/01 03:56:14;;;;;;;;;63.25;49.75;;;;;;;;4995100;28;45424;-73
2022/03/01 03:58:39;;;;;;;;;56.00;43.50;;;;;;;;4994010;28;45457;-73
2022/03/01 04:01:04;;;;;;;;;62.25;49.00;;;;;;;;4994317;28;45519;-73
2022/03/01 04:03:30;;;;;;;;;55.25;42.75;;;;;;;;4994595;28;46055;-73
2022/03/01 04:05:55;;;;;;;;;49.50;42.25;;;;;;;;4994675;28;47802;-72
2022/03/01 04:08:20;;;;;;;;;54.00;42.00;;;;;;;;4995289;28;45476;-73
2022/03/01 04:10:46;;;;;;;;;40.75;36.00;;;;;;;;4994171;28;45499;-73
2022/03/01 04:13:11;;;;;;;;;44.00;36.25;;;;;;;;4993718;28;45487;-73
2022/03/01 04:15:36;;;;;;;;;55.25;42.25;;;;;;;;5009125;28;45401;-73
2022/03/01 04:18:01;;;;;;;;;51.75;43.00;;;;;;;;4994269;28;45418;-73
2022/03/01 04:20:27;;;;;;;;;55.25;42.75;;;;;;;;4994568;28;45338;-73
2022/03/01 04:22:52;;;;;;;;;50.50;42.75;;;;;;;;4993916;28;45534;-73
2022/03/01 04:25:17;;;;;;;;;58.00;47.00;;;;;;;;4993787;28;45436;-73
2022/03/01 04:27:42;;;;;;;;;55.00;44.50;;;;;;;;4993410;28;45444;-73
2022/03/01 04:30:08;;;;;;;;;54.75;44.75;;;;;;;;4994314;28;45222;-75
2022/03/01 04:32:34;;;;;;;;;57.50;47.50;;;;;;;;4994520;28;45383;-73
2022/03/01 04:35:00;;;;;;;;;61.00;47.75;;;;;;;;4993978;28;45489;-73
2022/03/01 04:37:25;;;;;;;;;59.50;46.50;;;;;;;;4993763;28;45610;-73
2022/03/01 04:39:50;;;;;;;;;56.25;43.25;;;;;;;;4994106;28;45546;-74
2022/03/01 04:42:16;;;;;;;;;54.25;45.00;;;;;;;;5008502;28;46385;-74
2022/03/01 04:44:41;;;;;;;;;65.75;52.50;;;;;;;;4993916;28;45320;-74
2022/03/01 04:47:07;;;;;;;;;64.50;49.75;;;;;;;;4993880;28;45382;-73
2022/03/01 04:49:32;;;;;;;;;55.00;43.25;;;;;;;;4993433;28;45604;-74
2022/03/01 04:51:57;;;;;;;;;52.50;42.75;;;;;;;;4993381;28;46060;-74
2022/03/01 04:54:22;;;;;;;;;49.25;41.75;;;;;;;;4993443;28;45437;-74
2022/03/01 04:56:48;;;;;;;;;45.50;34.75;;;;;;;;4993655;28;45484;-73
2022/03/01 04:59:13;;;;;;;;;49.50;37.75;;;;;;;;4993965;28;46205;-73
2022/03/01 05:01:38;;;;;;;;;44.75;37.25;;;;;;;;4993540;28;47409;-73
2022/03/01 05:04:03;;;;;;;;;47.75;38.00;;;;;;;;4995049;28;45727;-73
2022/03/01 05:06:30;;;;;;;;;46.75;38.25;;;;;;;;4997194;28;45498;-73
2022/03/01 05:08:55;;;;;;;;;42.00;35.50;;;;;;;;4996929;28;45405;-73
2022/03/01 05:11:21;;;;;;;;;42.50;34.75;;;;;;;;4996403;28;46612;-73
2022/03/01 05:13:46;;;;;;;;;44.25;36.25;;;;;;;;4996631;28;45514;-73
2022/03/01 05:16:12;;;;;;;;;29.50;28.00;;;;;;;;4996903;28;45506;-74
2022/03/01 05:18:38;;;;;;;;;49.75;36.50;;;;;;;;4996815;28;45356;-72
2022/03/01 05:21:03;;;;;;;;;42.50;37.00;;;;;;;;4996084;28;46111;-72
2022/03/01 05:23:28;;;;;;;;;47.50;38.25;;;;;;;;4996979;28;45274;-72
2022/03/01 05:25:54;;;;;;;;;48.50;39.00;;;;;;;;4995771;28;45342;-74
2022/03/01 05:28:19;;;;;;;;;45.25;35.25;;;;;;;;4995944;28;45266;-72
2022/03/01 05:30:44;;;;;;;;;40.75;35.50;;;;;;;;4995699;28;45761;-73
2022/03/01 05:33:09;;;;;;;;;48.50;39.75;;;;;;;;4995989;28;45810;-73
2022/03/01 05:35:35;;;;;;;;;41.50;32.00;;;;;;;;4997043;28;45400;-73
2022/03/01 05:38:01;;;;;;;;;43.25;37.50;;;;;;;;4996144;28;45208;-73
2022/03/01 05:40:27;;;;;;;;;48.50;38.75;;;;;;;;4995613;28;45965;-73
2022/03/01 05:42:53;;;;;;;;;41.25;37.00;;;;;;;;4995867;28;45563;-73
2022/03/01 05:45:19;;;;;;;;;37.00;33.00;;;;;;;;4995713;28;45286;-73
2022/03/01 05:47:45;;;;;;;;;47.00;37.50;;;;;;;;4996112;28;45521;-73
2022/03/01 05:50:11;;;;;;;;;41.75;36.75;;;;;;;;4995861;28;45375;-74
2022/03/01 05:52:37;;;;;;;;;44.00;34.00;;;;;;;;4995617;28;45398;-74
2022/03/01 05:55:03;;;;;;;;;43.50;36.25;;;;;;;;4994907;28;45483;-73
2022/03/01 05:57:29;;;;;;;;;52.00;41.75;;;;;;;;4994770;28;45494;-74
2022/03/01 05:59:54;;;;;;;;;49.25;38.25;;;;;;;;4995180;28;46148;-73
2022/03/01 06:02:20;;;;;;;;;48.00;37.00;;;;;;;;4995517;28;45327;-73
2022/03/01 06:04:45;;;;;;;;;49.00;38.00;;;;;;;;4994868;28;45389;-74
2022/03/01 06:07:10;;;;;;;;;43.00;34.50;;;;;;;;4994811;28;45530;-73
2022/03/01 06:09:35;;;;;;;;;50.50;39.00;;;;;;;;4994230;28;45957;-71
2022/03/01 06:12:01;;;;;;;;;34.50;33.75;;;;;;;;4994903;28;45385;-76
2022/03/01 06:14:26;;;;;;;;;48.75;39.25;;;;;;;;4995032;28;45481;-73
2022/03/01 06:16:51;;;;;;;;;49.00;38.50;;;;;;;;4995718;28;45435;-74
2022/03/01 06:19:16;;;;;;;;;45.00;38.00;;;;;;;;4994620;28;46182;-76
2022/03/01 06:21:42;;;;;;;;;46.50;38.00;;;;;;;;4994711;28;45449;-77
2022/03/01 06:24:07;;;;;;;;;39.00;36.00;;;;;;;;4979232;28;45385;-73
2022/03/01 06:26:33;;;;;;;;;40.00;35.75;;;;;;;;4977456;28;45745;-76
2022/03/01 06:28:58;;;;;;;;;44.00;38.25;;;;;;;;4994725;28;45981;-76
2022/03/01 06:31:23;;;;;;;;;46.50;37.50;;;;;;;;4993743;28;45511;-75
2022/03/01 06:33:49;;;;;;;;;41.50;36.00;;;;;;;;4994519;28;45693;-79
2022/03/01 06:36:14;;;;;;;;;43.25;35.25;;;;;;;;4994760;28;45478;-75
2022/03/01 06:38:39;;;;;;;;;43.75;35.75;;;;;;;;4994616;28;45619;-77
2022/03/01 06:41:04;;;;;;;;;42.00;35.00;;;;;;;;4994585;28;45575;-79
2022/03/01 06:43:30;;;;;;;;;46.00;36.25;;;;;;;;4994186;28;45383;-77
2022/03/01 06:45:55;;;;;;;;;39.00;34.50;;;;;;;;4994055;28;45446;-77
2022/03/01 06:48:20;;;;;;;;;35.75;33.25;;;;;;;;4994247;28;45441;-77
2022/03/01 06:50:45;;;;;;;;;41.75;34.00;;;;;;;;4994339;28;45464;-73
2022/03/01 06:53:13;;;;;;;;;41.75;34.00;;;;;;;;4993852;28;45415;-74
2022/03/01 06:55:39;;;;;;;;;45.75;38.50;;;;;;;;4994073;28;45499;-72
2022/03/01 06:58:04;;;;;;;;;47.25;37.00;;;;;;;;4975792;28;46975;-75
2022/03/01 07:00:29;;;;;;;;;45.25;36.75;;;;;;;;4993943;28;45384;-74
2022/03/01 07:02:54;;;;;;;;;49.00;39.75;;;;;;;;4995343;28;45275;-75
2022/03/01 07:05:20;;;;;;;;;43.75;34.75;;;;;;;;4994695;28;45278;-74
2022/03/01 07:07:45;;;;;;;;;44.50;38.00;;;;;;;;4993285;28;45997;-75
2022/03/01 07:10:11;;;;;;;;;39.00;34.25;;;;;;;;4993060;28;45692;-75
2022/03/01 07:12:37;;;;;;;;;47.00;36.75;;;;;;;;4994066;28;45580;-74
2022/03/01 07:15:03;;;;;;;;;58.50;47.00;;;;;;;;4993607;28;45635;-73
2022/03/01 07:17:28;;;;;;;;;53.00;43.00;;;;;;;;4993615;28;46970;-79
2022/03/01 07:19:53;;;;;;;;;62.00;46.75;;;;;;;;4992770;28;45314;-77
2022/03/01 07:22:18;;;;;;;;;58.50;47.50;;;;;;;;4993452;28;45393;-79
2022/03/01 07:24:44;;;;;;;;;68.50;50.25;;;;;;;;4993241;28;45538;-78
2022/03/01 07:27:09;;;;;;;;;65.00;50.00;;;;;;;;4992199;28;46500;-77
2022/03/01 07:29:34;;;;;;;;;51.00;42.25;;;;;;;;4993551;28;45386;-78
2022/03/01 07:32:00;;;;;;;;;54.00;42.25;;;;;;;;4992490;28;45675;-79
2022/03/01 07:34:26;;;;;;;;;57.50;46.25;;;;;;;;4992634;28;45449;-79
2022/03/01 07:36:52;;;;;;;;;66.67;50.33;;;;;;;;4992218;28;45381;-80
2022/03/01 07:39:17;;;;;;;;;56.50;44.75;;;;;;;;4992743;28;45482;-78
2022/03/01 07:41:42;;;;;;;;;59.00;44.25;;;;;;;;4993349;28;45429;-79
2022/03/01 07:44:08;;;;;;;;;52.50;40.50;;;;;;;;4993366;28;45311;-77
2022/03/01 07:46:33;;;;;;;;;54.00;41.75;;;;;;;;4992644;28;46325;-76
2022/03/01 07:48:58;;;;;;;;;50.75;42.75;;;;;;;;4992664;28;45394;-75
2022/03/01 07:51:23;;;;;;;;;48.75;38.25;;;;;;;;4992026;28;45404;-75
2022/03/01 07:53:49;;;;;;;;;52.00;42.75;;;;;;;;4991753;28;45579;-74
2022/03/01 07:56:14;;;;;;;;;54.00;41.50;;;;;;;;4992065;28;45495;-74
2022/03/01 07:58:40;;;;;;;;;53.00;41.75;;;;;;;;5004360;28;45512;-74
2022/03/01 08:01:05;;;;;;;;;50.75;39.75;;;;;;;;4987715;28;45482;-75
2022/03/01 08:03:30;;;;;;;;;49.75;41.00;;;;;;;;4992182;28;45543;-75
2022/03/01 08:05:55;;;;;;;;;40.50;34.25;;;;;;;;4991035;28;45552;-75
2022/03/01 08:08:21;;;;;;;;;57.75;42.50;;;;;;;;4992190;28;45576;-79
2022/03/01 08:10:49;;;;;;;;;52.50;39.50;;;;;;;;4991345;28;45623;-75
2022/03/01 08:13:14;;;;;;;;;51.50;43.25;;;;;;;;4991448;28;45367;-75
2022/03/01 08:15:39;;;;;;;;;52.50;41.50;;;;;;;;4992124;28;45741;-76
2022/03/01 08:18:04;;;;;;;;;46.25;39.00;;;;;;;;4991982;28;45568;-76
2022/03/01 08:20:30;;;;;;;;;52.75;40.00;;;;;;;;4992506;28;45553;-75
2022/03/01 08:22:56;;;;;;;;;52.50;40.00;;;;;;;;4992432;28;45524;-76
2022/03/01 08:25:22;;;;;;;;;49.50;40.50;;;;;;;;4991981;28;45501;-76
2022/03/01 08:27:47;;;;;;;;;54.25;44.00;;;;;;;;4992542;28;45330;-78
2022/03/01 08:30:13;;;;;;;;;50.00;40.50;;;;;;;;4991840;28;45659;-78
2022/03/01 08:32:38;;;;;;;;;46.50;37.50;;;;;;;;4992960;28;45513;-76
2022/03/01 08:35:04;;;;;;;;;48.25;39.00;;;;;;;;4991828;28;45612;-76
2022/03/01 08:37:29;;;;;;;;;42.00;35.50;;;;;;;;4991804;28;45432;-77
2022/03/01 08:39:54;;;;;;;;;47.75;39.75;;;;;;;;4995139;28;45402;-75
2022/03/01 08:42:19;;;;;;;;;49.00;40.25;;;;;;;;4995170;28;45584;-77
2022/03/01 08:44:45;;;;;;;;;50.00;42.00;;;;;;;;4995719;28;46128;-75
2022/03/01 08:47:10;;;;;;;;;52.75;41.50;;;;;;;;4996010;28;45311;-76
2022/03/01 08:49:35;;;;;;;;;53.75;41.25;;;;;;;;4994840;28;45568;-73
2022/03/01 08:52:00;;;;;;;;;53.25;42.25;;;;;;;;5010536;28;45535;-75
2022/03/01 08:54:26;;;;;;;;;26.75;25.50;;;;;;;;4995471;28;47846;-75
2022/03/01 08:56:51;;;;;;;;;46.50;38.25;;;;;;;;4994860;28;45322;-75
2022/03/01 08:59:17;;;;;;;;;49.75;38.50;;;;;;;;4995419;28;45343;-75
2022/03/01 09:01:43;;;;;;;;;53.25;41.50;;;;;;;;4994127;28;45494;-74
2022/03/01 09:04:08;;;;;;;;;51.00;41.75;;;;;;;;4993831;28;46075;-74
2022/03/01 09:06:33;;;;;;;;;46.25;38.50;;;;;;;;4994890;28;45608;-74
2022/03/01 09:08:58;;;;;;;;;51.50;41.00;;;;;;;;4994960;28;45274;-74
2022/03/01 09:11:23;;;;;;;;;46.00;39.25;;;;;;;;4995086;28;45292;-75
2022/03/01 09:13:49;;;;;;;;;48.25;40.00;;;;;;;;4992116;28;46424;-76
2022/03/01 09:16:14;;;;;;;;;53.00;43.75;;;;;;;;4994845;28;45470;-74
2022/03/01 09:18:39;;;;;;;;;51.25;41.50;;;;;;;;4994644;28;45571;-74
2022/03/01 09:21:05;;;;;;;;;49.75;38.25;;;;;;;;4995211;28;45513;-74
2022/03/01 09:23:30;;;;;;;;;59.50;44.25;;;;;;;;4995711;28;45381;-74
2022/03/01 09:25:55;;;;;;;;;50.00;38.75;;;;;;;;4994831;28;45402;-74
2022/03/01 09:28:21;;;;;;;;;51.75;39.25;;;;;;;;4995083;28;45411;-74
2022/03/01 09:30:46;;;;;;;;;57.50;44.50;;;;;;;;4995019;28;45499;-77
2022/03/01 09:33:12;;;;;;;;;53.50;41.75;;;;;;;;4994352;28;45373;-77
2022/03/01 09:35:37;;;;;;;;;47.00;37.75;;;;;;;;4977756;28;45377;-74
2022/03/01 09:38:02;;;;;;;;;47.00;37.00;;;;;;;;5010780;28;45434;-73
2022/03/01 09:40:27;;;;;;;;;48.00;39.25;;;;;;;;4994959;28;45414;-75
2022/03/01 09:42:53;;;;;;;;;53.75;42.00;;;;;;;;4994652;28;45452;-74
2022/03/01 09:45:18;;;;;;;;;49.75;40.50;;;;;;;;5010259;28;45415;-74
2022/03/01 09:47:44;;;;;;;;;50.00;41.25;;;;;;;;4994948;28;46179;-75
2022/03/01 09:50:10;;;;;;;;;57.25;45.75;;;;;;;;4994696;28;45447;-74
2022/03/01 09:52:36;;;;;;;;;48.50;39.25;;;;;;;;4994460;28;46696;-75
2022/03/01 09:55:02;;;;;;;;;51.25;41.75;;;;;;;;4994957;28;45500;-75
2022/03/01 09:57:27;;;;;;;;;48.75;39.25;;;;;;;;4995993;28;45449;-75
2022/03/01 09:59:53;;;;;;;;;48.25;38.50;;;;;;;;4995609;28;45359;-73
2022/03/01 10:02:19;;;;;;;;;48.50;39.75;;;;;;;;4994860;28;47251;-76
2022/03/01 10:04:50;;;;;;;;;54.00;42.25;;;;;;;;4995077;28;45534;-78
2022/03/01 10:07:20;;;;;;;;;50.75;39.75;;;;;;;;4993813;28;45483;-75
2022/03/01 10:09:46;;;;;;;;;54.50;42.50;;;;;;;;4994257;28;45474;-74
2022/03/01 10:12:12;;;;;;;;;53.75;42.25;;;;;;;;4993925;28;45615;-75
2022/03/01 10:14:40;;;;;;;;;51.25;40.00;;;;;;;;4995131;28;45427;-75
2022/03/01 10:17:12;;;;;;;;;52.75;43.00;;;;;;;;4994094;28;45494;-75
2022/03/01 10:19:37;;;;;;;;;47.25;40.00;;;;;;;;4993770;28;45559;-75
2022/03/01 10:22:03;;;;;;;;;55.00;44.25;;;;;;;;4994370;28;46131;-75
2022/03/01 10:24:29;;;;;;;;;57.50;46.75;;;;;;;;4994244;28;45394;-74
2022/03/01 10:26:55;;;;;;;;;57.25;45.25;;;;;;;;4994420;28;45317;-75
2022/03/01 10:29:25;;;;;;;;;52.75;42.00;;;;;;;;4992996;28;45340;-76
2022/03/01 10:31:52;;;;;;;;;48.50;39.00;;;;;;;;4993926;28;45601;-76
2022/03/01 10:34:17;;;;;;;;;47.00;35.75;;;;;;;;4993872;28;45470;-76
2022/03/01 10:36:44;;;;;;;;;55.00;43.00;;;;;;;;4994116;28;45507;-75
2022/03/01 10:39:17;;;;;;;;;47.50;38.75;;;;;;;;4977824;28;45463;-74
2022/03/01 10:41:43;;;;;;;;;55.25;45.00;;;;;;;;4990789;28;46243;-74
2022/03/01 10:44:12;;;;;;;;;41.75;34.75;;;;;;;;4993486;28;45606;-75
2022/03/01 10:46:39;;;;;;;;;41.75;37.75;;;;;;;;4993909;28;45398;-75
2022/03/01 10:49:10;;;;;;;;;45.75;38.75;;;;;;;;4994462;28;45539;-75
2022/03/01 10:51:46;;;;;;;;;58.00;47.75;;;;;;;;4993795;28;46472;-75
2022/03/01 10:54:22;;;;;;;;;38.50;34.25;;;;;;;;4978665;28;45298;-76
2022/03/01 10:56:50;;;;;;;;;39.75;31.75;;;;;;;;4994403;28;45355;-74
2022/03/01 10:59:15;;;;;;;;;31.50;30.75;;;;;;;;4993402;28;45429;-74
2022/03/01 11:01:40;;;;;;;;;51.25;39.00;;;;;;;;4992455;28;46191;-74
2022/03/01 11:04:07;;;;;;;;;32.50;25.75;;;;;;;;4993638;28;45885;-75
2022/03/01 11:06:33;;;;;;;;;42.75;35.50;;;;;;;;4993876;28;45614;-74
2022/03/01 11:08:59;;;;;;;;;45.00;36.75;;;;;;;;4992999;28;45333;-74
2022/03/01 11:11:26;;;;;;;;;40.00;33.25;;;;;;;;4993461;28;46686;-74
2022/03/01 11:13:51;;;;;;;;;37.00;31.00;;;;;;;;4992833;28;45640;-76
2022/03/01 11:16:27;;;;;;;;;41.75;33.00;;;;;;;;4993403;28;45362;-75
2022/03/01 11:18:52;;;;;;;;;38.50;31.25;;;;;;;;4994121;28;45418;-75
2022/03/01 11:21:19;;;;;;;;;38.00;30.25;;;;;;;;4993488;28;45665;-75
2022/03/01 11:23:44;;;;;;;;;39.50;32.75;;;;;;;;4993565;28;45358;-75
2022/03/01 11:26:11;;;;;;;;;39.50;34.50;;;;;;;;4992730;28;45404;-75
2022/03/01 11:28:40;;;;;;;;;36.25;30.00;;;;;;;;4992380;28;45388;-76
2022/03/01 11:31:26;;;;;;;;;28.50;23.50;;;;;;;;4992859;28;49685;-75
2022/03/01 11:33:55;;;;;;;;;34.00;30.50;;;;;;;;4992433;28;45399;-75
2022/03/01 11:36:21;;;;;;;;;40.25;33.00;;;;;;;;4992765;28;45578;-76
2022/03/01 11:38:46;;;;;;;;;34.25;29.25;;;;;;;;4993093;28;45447;-75
2022/03/01 11:41:15;;;;;;;;;26.25;24.25;;;;;;;;4992355;28;46669;-76
2022/03/01 11:43:40;;;;;;;;;36.25;32.25;;;;;;;;4991663;28;45662;-75
2022/03/01 11:46:15;;;;;;;;;34.25;32.25;;;;;;;;4992453;28;45445;-75
2022/03/01 11:48:52;;;;;;;;;29.50;26.25;;;;;;;;4992659;28;45536;-75
2022/03/01 11:51:18;;;;;;;;;32.75;28.00;;;;;;;;4977195;28;46614;-75
2022/03/01 11:53:45;;;;;;;;;40.25;35.00;;;;;;;;4993069;28;45505;-76
2022/03/01 11:56:12;;;;;;;;;37.75;29.75;;;;;;;;4992963;28;45432;-75
2022/03/01 11:58:37;;;;;;;;;34.75;32.00;;;;;;;;4992570;28;45511;-76
2022/03/01 12:01:07;;;;;;;;;40.75;32.25;;;;;;;;4993089;28;46067;-75
2022/03/01 12:03:32;;;;;;;;;24.75;22.25;;;;;;;;4992993;28;45619;-75
2022/03/01 12:05:58;;;;;;;;;32.75;30.75;;;;;;;;4974761;28;45385;-75
2022/03/01 12:08:27;;;;;;;;;38.00;31.50;;;;;;;;4993061;28;45428;-74
2022/03/01 12:10:53;;;;;;;;;20.50;20.50;;;;;;;;4974377;28;46135;-75
2022/03/01 12:13:18;;;;;;;;;26.00;23.50;;;;;;;;4991764;28;45487;-76
2022/03/01 12:15:53;;;;;;;;;39.25;30.25;;;;;;;;4992713;28;45413;-76
2022/03/01 12:18:25;;;;;;;;;22.50;20.00;;;;;;;;4978349;28;45340;-75
2022/03/01 12:20:51;;;;;;;;;26.75;24.25;;;;;;;;4992643;28;46321;-75
2022/03/01 12:23:26;;;;;;;;;8.25;8.25;;;;;;;;4992393;28;45445;-75
2022/03/01 12:25:51;;;;;;;;;22.50;21.00;;;;;;;;4991554;28;45427;-75
2022/03/01 12:28:19;;;;;;;;;22.50;22.50;;;;;;;;4991837;28;45393;-76
2022/03/01 12:30:44;;;;;;;;;22.50;21.50;;;;;;;;4992563;28;45795;-76
2022/03/01 12:33:11;;;;;;;;;28.50;21.00;;;;;;;;4993427;28;45341;-76
2022/03/01 12:35:36;;;;;;;;;22.25;20.25;;;;;;;;4993705;28;45313;-77
2022/03/01 12:38:05;;;;;;;;;30.75;24.75;;;;;;;;4993656;28;45610;-76
2022/03/01 12:40:31;;;;;;;;;30.50;28.25;;;;;;;;4992408;28;45487;-75
2022/03/01 12:43:03;;;;;;;;;21.75;20.25;;;;;;;;4992752;28;45437;-76
2022/03/01 12:45:33;;;;;;;;;28.00;25.00;;;;;;;;4992828;28;45281;-75
2022/03/01 12:47:58;;;;;;;;;30.00;26.75;;;;;;;;4993264;28;45270;-76
2022/03/01 12:50:23;;;;;;;;;24.75;23.75;;;;;;;;4992953;28;45421;-78
2022/03/01 12:52:55;;;;;;;;;25.50;23.00;;;;;;;;4992971;28;45380;-76
2022/03/01 12:55:20;;;;;;;;;36.00;26.75;;;;;;;;4992861;28;45465;-75
2022/03/01 12:57:46;;;;;;;;;27.50;25.75;;;;;;;;4993096;28;45455;-76
2022/03/01 13:00:11;;;;;;;;;37.25;33.00;;;;;;;;4993387;28;45570;-76
2022/03/01 13:02:36;;;;;;;;;38.50;30.75;;;;;;;;4993764;28;45329;-75
2022/03/01 13:05:03;;;;;;;;;33.25;27.50;;;;;;;;4993468;28;45283;-75
2022/03/01 13:07:32;;;;;;;;;34.25;29.75;;;;;;;;4993200;28;45446;-76
2022/03/01 13:10:01;;;;;;;;;27.50;27.50;;;;;;;;4992160;28;47021;-76
2022/03/01 13:12:26;;;;;;;;;44.25;33.75;;;;;;;;4993107;28;45480;-77
2022/03/01 13:14:55;;;;;;;;;31.75;29.50;;;;;;;;4993544;28;45427;-76
2022/03/01 13:17:20;;;;;;;;;37.25;29.75;;;;;;;;4975372;28;45392;-74
2022/03/01 13:19:46;;;;;;;;;30.50;24.50;;;;;;;;4992481;28;46199;-76
2022/03/01 13:22:14;;;;;;;;;32.00;29.50;;;;;;;;4992760;28;45445;-76
2022/03/01 13:24:43;;;;;;;;;36.50;28.50;;;;;;;;4993059;28;47219;-76
2022/03/01 13:27:15;;;;;;;;;31.75;26.50;;;;;;;;4995664;28;45559;-76
2022/03/01 13:29:41;;;;;;;;;34.75;30.25;;;;;;;;4991845;28;46338;-77
2022/03/01 13:32:08;;;;;;;;;39.25;33.00;;;;;;;;4995313;28;45441;-77
2022/03/01 13:34:34;;;;;;;;;30.25;27.00;;;;;;;;4995910;28;45387;-75
2022/03/01 13:37:00;;;;;;;;;36.25;34.50;;;;;;;;4994874;28;45419;-76
2022/03/01 13:39:26;;;;;;;;;35.00;31.00;;;;;;;;4995315;28;47270;-76
2022/03/01 13:41:52;;;;;;;;;35.25;30.00;;;;;;;;4995798;28;45438;-76
2022/03/01 13:44:21;;;;;;;;;33.00;29.00;;;;;;;;4996473;28;45632;-76
2022/03/01 13:46:56;;;;;;;;;28.00;28.00;;;;;;;;4995909;28;45505;-76
2022/03/01 13:49:26;;;;;;;;;38.00;31.50;;;;;;;;4995431;28;47250;-75
2022/03/01 13:52:02;;;;;;;;;36.25;31.50;;;;;;;;4995305;28;45263;-75
2022/03/01 13:54:27;;;;;;;;;34.25;28.00;;;;;;;;4995298;28;45605;-77
2022/03/01 13:56:52;;;;;;;;;35.00;29.50;;;;;;;;4996248;28;45354;-76
2022/03/01 13:59:18;;;;;;;;;36.50;33.00;;;;;;;;4996097;28;47027;-75
2022/03/01 14:01:47;;;;;;;;;40.25;32.75;;;;;;;;4995793;28;45352;-76
2022/03/01 14:04:12;;;;;;;;;33.75;30.50;;;;;;;;4995746;28;45560;-78
2022/03/01 14:06:37;;;;;;;;;28.75;27.25;;;;;;;;4995474;28;45466;-77
2022/03/01 14:09:02;;;;;;;;;34.00;30.75;;;;;;;;4994730;28;46082;-77